METAR Data

Data at: 0558 UTC 28 Sep 2022

METAR for:KEWB (New Bedford Rgnl, MA, US)
Text:KEWB 280553Z AUTO 00000KT 10SM CLR 09/09 A2994 RMK AO2 SLP138 T00890089 10150 20083 51008
Temperature: 8.9°C ( 48°F)
Dewpoint: 8.9°C ( 48°F) [RH = 100%]
Pressure (altimeter):29.94 inches Hg (1014.0 mb) [Sea level pressure: 1013.8 mb]
Winds:calm
Visibility:10 or more sm (16+ km)
Ceiling:at least 12,000 feet AGL
Clouds:sky clear below 12,000 feet AGL
QC Flag:automated observation with no human augmentation